Time;durP1;ratioP1;P1;durP2;ratioP2;P2;SDS_P1;SDS_P2;PMS_P1;PMS_P2;Temp;Humidity;BMP_temperature;BMP_pressure;BME280_temperature;BME280_humidity;BME280_pressure;Samples;Min_cycle;Max_cycle;Signal;HPM_P1;HPM_P2
2021/06/07 00:01:10;;;;;;;15.75;7.97;;;14.90;99.90;;;;;;5003929;28;20034;-72
2021/06/07 00:03:36;;;;;;;16.88;7.32;;;14.90;99.90;;;;;;5004972;28;20019;-70
2021/06/07 00:06:02;;;;;;;23.67;8.52;;;14.90;99.90;;;;;;5004255;28;20037;-71
2021/06/07 00:08:28;;;;;;;16.02;7.15;;;14.90;99.90;;;;;;5003841;28;20032;-72
2021/06/07 00:10:54;;;;;;;14.23;7.13;;;14.90;99.90;;;;;;5004144;28;20465;-73
2021/06/07 00:13:20;;;;;;;17.52;7.50;;;14.90;99.90;;;;;;5005085;28;20467;-73
2021/06/07 00:15:47;;;;;;;17.70;8.70;;;14.90;99.90;;;;;;5003674;28;20069;-72
2021/06/07 00:18:16;;;;;;;16.38;6.85;;;14.90;99.90;;;;;;5005477;28;20031;-73
2021/06/07 00:20:46;;;;;;;12.98;7.63;;;14.90;99.90;;;;;;5005165;28;20034;-73
2021/06/07 00:23:12;;;;;;;14.88;7.70;;;14.90;99.90;;;;;;5003655;28;20037;-73
2021/06/07 00:25:39;;;;;;;16.17;7.90;;;15.00;99.90;;;;;;5005560;28;20022;-74
2021/06/07 00:28:06;;;;;;;17.88;7.18;;;14.90;99.90;;;;;;5005282;28;20031;-72
2021/06/07 00:30:33;;;;;;;17.80;7.32;;;14.80;99.90;;;;;;5005036;28;20089;-72
2021/06/07 00:32:59;;;;;;;16.02;7.95;;;14.90;99.90;;;;;;5005314;28;20035;-72
2021/06/07 00:35:26;;;;;;;17.13;7.75;;;14.90;99.90;;;;;;5004529;28;20037;-72
2021/06/07 00:37:53;;;;;;;17.42;8.38;;;14.90;99.90;;;;;;5005022;28;20046;-73
2021/06/07 00:40:22;;;;;;;14.73;8.10;;;15.00;99.90;;;;;;5005440;28;20030;-73
2021/06/07 00:42:47;;;;;;;14.38;8.10;;;14.90;99.90;;;;;;5004745;28;20137;-72
2021/06/07 00:45:17;;;;;;;15.55;8.02;;;14.90;99.90;;;;;;5005137;28;20463;-71
2021/06/07 00:47:44;;;;;;;18.73;8.35;;;14.90;99.90;;;;;;5003808;28;20034;-72
2021/06/07 00:50:12;;;;;;;22.00;9.00;;;14.90;99.90;;;;;;5003475;28;20034;-72
2021/06/07 00:55:50;;;;;;;17.02;8.68;;;14.90;99.90;;;;;;5005011;28;20070;-73
2021/06/07 00:58:19;;;;;;;16.10;8.52;;;14.80;99.90;;;;;;5003375;28;20026;-73
2021/06/07 01:00:45;;;;;;;15.80;7.72;;;14.80;99.90;;;;;;5004699;28;20105;-72
2021/06/07 01:03:12;;;;;;;14.02;8.13;;;14.80;99.90;;;;;;5003664;28;20121;-73
2021/06/07 01:05:39;;;;;;;27.23;9.52;;;14.80;99.90;;;;;;5004726;28;20034;-73
2021/06/07 01:08:04;;;;;;;14.30;7.93;;;14.80;99.90;;;;;;5005113;28;20112;-72
2021/06/07 01:10:31;;;;;;;16.92;9.35;;;14.70;99.90;;;;;;5003427;28;20493;-72
2021/06/07 01:12:59;;;;;;;16.08;8.32;;;14.70;99.90;;;;;;5004412;28;20424;-73
2021/06/07 01:15:26;;;;;;;20.52;9.65;;;14.70;99.90;;;;;;5004739;28;20046;-72
2021/06/07 01:17:52;;;;;;;19.13;9.75;;;14.70;99.90;;;;;;5004320;28;20030;-72
2021/06/07 01:20:20;;;;;;;19.90;9.65;;;14.70;99.90;;;;;;5005246;28;20118;-73
2021/06/07 01:22:48;;;;;;;15.45;8.40;;;14.70;99.90;;;;;;5008518;28;20030;-72
2021/06/07 01:25:18;;;;;;;14.70;8.18;;;14.70;99.90;;;;;;5006694;28;20027;-73
2021/06/07 01:27:43;;;;;;;23.75;9.88;;;14.70;99.90;;;;;;5008453;28;20022;-73
2021/06/07 01:30:16;;;;;;;16.45;8.90;;;14.70;99.90;;;;;;5008357;28;20080;-73
2021/06/07 01:32:42;;;;;;;25.00;9.57;;;14.70;99.90;;;;;;5008086;28;20486;-73
2021/06/07 01:35:10;;;;;;;18.83;9.23;;;14.70;99.90;;;;;;5008193;28;20030;-74
2021/06/07 01:37:37;;;;;;;16.08;9.20;;;14.70;99.90;;;;;;5008487;28;20057;-73
2021/06/07 01:40:05;;;;;;;17.67;8.93;;;14.70;99.90;;;;;;5008031;28;20033;-73
2021/06/07 01:42:31;;;;;;;16.58;7.80;;;14.70;99.90;;;;;;5008052;28;20038;-71
2021/06/07 01:44:57;;;;;;;20.73;9.27;;;14.70;99.90;;;;;;5007936;28;20054;-72
2021/06/07 01:47:22;;;;;;;20.38;9.48;;;14.70;99.90;;;;;;5007496;28;20034;-71
2021/06/07 01:49:48;;;;;;;16.90;8.65;;;14.70;99.90;;;;;;5008052;28;20030;-72
2021/06/07 01:52:14;;;;;;;13.18;8.90;;;14.70;99.90;;;;;;5008047;28;20050;-72
2021/06/07 01:54:40;;;;;;;18.52;8.18;;;14.60;99.90;;;;;;5007680;28;20041;-72
2021/06/07 01:57:06;;;;;;;20.73;9.10;;;14.70;99.90;;;;;;5008141;28;20031;-71
2021/06/07 01:59:32;;;;;;;20.30;10.50;;;14.60;99.90;;;;;;5006070;28;20050;-71
2021/06/07 02:01:58;;;;;;;20.63;9.63;;;14.60;99.90;;;;;;5007475;28;20041;-73
2021/06/07 02:04:24;;;;;;;18.58;10.05;;;14.60;99.90;;;;;;5007675;28;20045;-72
2021/06/07 02:06:49;;;;;;;20.70;9.75;;;14.60;99.90;;;;;;5007486;28;20036;-72
2021/06/07 02:09:15;;;;;;;15.82;9.23;;;14.60;99.90;;;;;;5007474;28;20027;-72
2021/06/07 02:11:41;;;;;;;23.15;9.88;;;14.60;99.90;;;;;;5007435;28;20475;-73
2021/06/07 02:14:07;;;;;;;22.30;10.63;;;14.60;99.90;;;;;;5007523;28;20082;-74
2021/06/07 02:16:38;;;;;;;23.45;10.50;;;14.60;99.90;;;;;;5007616;28;20114;-72
2021/06/07 02:19:07;;;;;;;28.30;11.32;;;14.60;99.90;;;;;;5007532;28;20023;-75
2021/06/07 02:21:34;;;;;;;23.40;11.00;;;14.50;99.90;;;;;;5006918;28;20635;-72
2021/06/07 02:24:02;;;;;;;22.10;11.85;;;14.50;99.90;;;;;;5022369;28;20026;-74
2021/06/07 02:26:27;;;;;;;31.73;10.75;;;14.50;99.90;;;;;;5007425;28;20037;-72
2021/06/07 02:28:59;;;;;;;21.35;9.20;;;14.50;99.90;;;;;;5006993;28;20062;-73
2021/06/07 02:31:25;;;;;;;21.92;11.88;;;14.50;99.90;;;;;;5006744;28;20053;-73
2021/06/07 02:33:53;;;;;;;19.33;10.95;;;14.40;99.90;;;;;;5006520;28;20039;-73
2021/06/07 02:36:20;;;;;;;32.63;11.07;;;14.50;99.90;;;;;;5006959;28;20046;-72
2021/06/07 02:38:46;;;;;;;18.75;10.00;;;14.50;99.90;;;;;;5007054;28;20030;-73
2021/06/07 02:41:13;;;;;;;24.25;11.75;;;14.40;99.90;;;;;;5006825;28;20041;-74
2021/06/07 02:43:39;;;;;;;42.50;12.10;;;14.50;99.90;;;;;;5007120;28;20062;-73
2021/06/07 02:46:05;;;;;;;21.95;10.32;;;14.40;99.90;;;;;;5007076;28;20031;-72
2021/06/07 02:48:32;;;;;;;20.38;10.30;;;14.50;99.90;;;;;;5006848;28;20041;-72
2021/06/07 02:50:57;;;;;;;25.30;10.57;;;14.50;99.90;;;;;;5021634;28;20153;-72
2021/06/07 02:53:23;;;;;;;20.33;9.77;;;14.50;99.90;;;;;;5006922;28;20026;-71
2021/06/07 02:55:51;;;;;;;28.73;11.65;;;14.50;99.90;;;;;;5006744;28;20030;-72
2021/06/07 02:58:19;;;;;;;23.52;9.98;;;14.40;99.90;;;;;;5006477;28;20022;-72
2021/06/07 03:00:58;;;;;;;24.40;11.63;;;14.40;99.90;;;;;;5005211;28;20075;-72
2021/06/07 03:03:24;;;;;;;35.28;11.63;;;14.50;99.90;;;;;;5006399;28;20072;-72
2021/06/07 03:05:53;;;;;;;25.30;11.60;;;14.50;99.90;;;;;;5006686;28;20026;-72
2021/06/07 03:08:23;;;;;;;19.33;9.73;;;14.50;99.90;;;;;;5006674;28;20031;-72
2021/06/07 03:10:53;;;;;;;23.92;11.05;;;14.40;99.90;;;;;;5006101;28;20023;-73
2021/06/07 03:13:19;;;;;;;30.30;13.00;;;14.40;99.90;;;;;;5006264;28;20049;-72
2021/06/07 03:15:46;;;;;;;25.25;11.00;;;14.40;99.90;;;;;;5006499;28;20397;-73
2021/06/07 03:18:12;;;;;;;24.17;10.73;;;14.40;99.90;;;;;;5006075;28;20034;-73
2021/06/07 03:20:38;;;;;;;20.10;10.15;;;14.30;99.90;;;;;;5006459;28;20547;-73
2021/06/07 03:23:10;;;;;;;24.90;12.10;;;14.30;99.90;;;;;;5006527;28;20030;-73
2021/06/07 03:25:37;;;;;;;26.20;12.02;;;14.30;99.90;;;;;;5006310;28;20026;-72
2021/06/07 03:28:04;;;;;;;27.63;10.45;;;14.30;99.90;;;;;;5006291;28;20023;-72
2021/06/07 03:30:30;;;;;;;26.80;11.68;;;14.30;99.90;;;;;;5006010;28;20030;-72
2021/06/07 03:32:56;;;;;;;22.42;10.52;;;14.30;99.90;;;;;;5005856;28;20122;-73
2021/06/07 03:35:22;;;;;;;31.77;11.25;;;14.30;99.90;;;;;;5005688;28;20031;-72
2021/06/07 03:37:48;;;;;;;29.35;11.57;;;14.30;99.90;;;;;;5005517;28;20030;-72
2021/06/07 03:40:22;;;;;;;25.90;11.13;;;14.30;99.90;;;;;;5005939;28;20019;-74
2021/06/07 03:42:48;;;;;;;44.05;12.98;;;14.30;99.90;;;;;;5005921;28;20074;-71
2021/06/07 03:45:15;;;;;;;46.10;13.00;;;14.30;99.90;;;;;;5004225;28;20058;-72
2021/06/07 03:47:42;;;;;;;25.23;11.52;;;14.20;99.90;;;;;;5005834;28;20019;-73
2021/06/07 03:50:09;;;;;;;22.17;11.38;;;14.20;99.90;;;;;;5005977;28;20023;-73
2021/06/07 03:52:36;;;;;;;24.50;12.80;;;14.20;99.90;;;;;;5020484;28;20121;-72
2021/06/07 03:55:05;;;;;;;35.42;13.35;;;14.20;99.90;;;;;;5020830;28;20037;-72
2021/06/07 03:57:31;;;;;;;34.60;13.27;;;14.30;99.90;;;;;;5005439;28;20037;-74
2021/06/07 03:59:56;;;;;;;27.75;12.88;;;14.20;99.90;;;;;;5005318;28;20081;-74
2021/06/07 04:02:22;;;;;;;31.10;13.20;;;14.20;99.90;;;;;;5020842;28;20022;-74
2021/06/07 04:04:48;;;;;;;34.25;14.13;;;14.30;99.90;;;;;;5005549;28;20029;-73
2021/06/07 04:07:14;;;;;;;32.60;12.35;;;14.20;99.90;;;;;;5005372;28;20027;-72
2021/06/07 04:09:41;;;;;;;39.90;12.50;;;14.20;99.90;;;;;;5020365;28;20118;-73
2021/06/07 04:12:07;;;;;;;31.15;12.57;;;14.20;99.90;;;;;;5005420;28;20034;-73
2021/06/07 04:14:33;;;;;;;35.85;13.30;;;14.20;99.90;;;;;;5005042;28;20109;-72
2021/06/07 04:16:59;;;;;;;35.83;15.15;;;14.10;99.90;;;;;;5020449;28;20037;-73
2021/06/07 04:19:24;;;;;;;27.95;12.82;;;14.20;99.90;;;;;;5003805;28;20031;-75
2021/06/07 04:21:50;;;;;;;32.55;14.15;;;14.10;99.90;;;;;;5003971;28;20233;-74
2021/06/07 04:24:16;;;;;;;26.88;12.93;;;14.20;99.90;;;;;;5005306;28;20471;-74
2021/06/07 04:26:42;;;;;;;29.77;13.25;;;14.10;99.90;;;;;;5005181;28;20033;-74
2021/06/07 04:29:07;;;;;;;32.58;12.25;;;14.10;99.90;;;;;;5005108;28;20034;-75
2021/06/07 04:31:33;;;;;;;31.63;14.10;;;14.10;99.90;;;;;;5004062;28;20081;-73
2021/06/07 04:33:59;;;;;;;27.40;13.35;;;14.10;99.90;;;;;;5005035;28;20125;-72
2021/06/07 04:36:24;;;;;;;32.55;13.55;;;14.10;99.90;;;;;;5004924;28;20022;-74
2021/06/07 04:38:50;;;;;;;31.00;12.15;;;14.10;99.90;;;;;;5004006;28;20040;-73
2021/06/07 04:41:16;;;;;;;30.10;13.10;;;14.10;99.90;;;;;;5003504;28;20022;-74
2021/06/07 04:43:42;;;;;;;27.10;13.23;;;14.20;99.90;;;;;;5004017;28;20030;-73
2021/06/07 04:46:08;;;;;;;46.75;13.07;;;14.20;99.90;;;;;;5005214;28;20026;-74
2021/06/07 04:48:34;;;;;;;40.78;12.68;;;14.20;99.90;;;;;;5004796;28;20034;-75
2021/06/07 04:51:00;;;;;;;33.38;13.63;;;14.20;99.90;;;;;;5004981;28;20031;-74
2021/06/07 04:53:26;;;;;;;29.55;13.73;;;14.20;99.90;;;;;;5004913;28;20065;-74
2021/06/07 04:55:52;;;;;;;28.38;12.93;;;14.20;99.90;;;;;;5005840;28;20029;-73
2021/06/07 04:58:19;;;;;;;40.13;12.93;;;14.20;99.90;;;;;;5008811;28;20113;-76
2021/06/07 05:00:48;;;;;;;24.25;11.98;;;14.30;99.90;;;;;;5008604;28;20053;-74
2021/06/07 05:03:15;;;;;;;26.63;12.68;;;14.30;99.90;;;;;;5008589;28;20033;-75
2021/06/07 05:05:40;;;;;;;30.88;11.68;;;14.30;99.90;;;;;;5024234;28;20057;-75
2021/06/07 05:08:07;;;;;;;27.35;12.65;;;14.30;99.90;;;;;;5009027;28;20117;-73
2021/06/07 05:10:34;;;;;;;30.77;13.65;;;14.30;99.90;;;;;;5008795;28;20088;-73
2021/06/07 05:13:00;;;;;;;29.00;10.07;;;14.40;99.90;;;;;;5008539;28;20094;-73
2021/06/07 05:15:26;;;;;;;35.88;14.10;;;14.40;99.90;;;;;;5008164;28;20034;-74
2021/06/07 05:17:52;;;;;;;26.60;11.63;;;14.40;99.90;;;;;;5008440;28;20037;-74
2021/06/07 05:20:23;;;;;;;22.98;11.27;;;14.40;99.90;;;;;;5008333;28;20030;-74
2021/06/07 05:22:50;;;;;;;23.73;11.63;;;14.40;99.90;;;;;;5008363;28;20026;-74
2021/06/07 05:25:18;;;;;;;31.25;12.95;;;14.40;99.90;;;;;;5006889;28;20027;-74
2021/06/07 05:27:46;;;;;;;26.38;11.57;;;14.40;99.90;;;;;;5008272;28;20056;-74
2021/06/07 05:30:12;;;;;;;21.60;11.48;;;14.40;99.90;;;;;;5008202;28;20475;-73
2021/06/07 05:32:38;;;;;;;22.55;11.30;;;14.50;99.90;;;;;;5006874;28;20039;-74
2021/06/07 05:35:08;;;;;;;31.75;12.57;;;14.40;99.90;;;;;;5008165;28;20030;-75
2021/06/07 05:37:34;;;;;;;20.30;11.02;;;14.40;99.90;;;;;;5008175;28;20445;-75
2021/06/07 05:40:00;;;;;;;25.40;11.82;;;14.50;99.90;;;;;;5008143;28;20506;-74
2021/06/07 05:42:27;;;;;;;36.47;12.13;;;14.50;99.90;;;;;;5008021;28;20073;-75
2021/06/07 05:44:52;;;;;;;33.33;11.98;;;14.40;99.90;;;;;;5006390;28;20143;-75
2021/06/07 05:47:19;;;;;;;23.08;11.18;;;14.50;99.90;;;;;;5010003;28;20034;-73
2021/06/07 05:49:45;;;;;;;29.65;11.75;;;14.50;99.90;;;;;;5013389;28;20053;-72
2021/06/07 05:52:11;;;;;;;22.15;10.75;;;14.50;99.90;;;;;;5019588;28;20037;-74
2021/06/07 05:54:38;;;;;;;26.70;11.90;;;14.50;99.90;;;;;;5021918;28;20133;-74
2021/06/07 05:57:06;;;;;;;30.88;11.07;;;14.50;99.90;;;;;;5007695;28;20022;-73
2021/06/07 05:59:35;;;;;;;25.55;11.32;;;14.50;99.90;;;;;;5007439;28;20038;-71
2021/06/07 06:02:03;;;;;;;23.92;12.02;;;14.60;99.90;;;;;;5006278;28;20027;-75
2021/06/07 06:04:28;;;;;;;25.27;11.05;;;14.60;99.90;;;;;;5006086;28;20045;-73
2021/06/07 06:06:54;;;;;;;22.35;10.82;;;14.70;99.90;;;;;;5007185;28;20026;-74
2021/06/07 06:09:19;;;;;;;19.10;9.40;;;14.70;99.90;;;;;;5006424;28;20032;-74
2021/06/07 06:11:45;;;;;;;20.92;9.43;;;14.80;99.90;;;;;;5013849;28;20049;-75
2021/06/07 06:14:11;;;;;;;19.17;10.38;;;14.70;99.90;;;;;;5012985;28;20422;-75
2021/06/07 06:16:36;;;;;;;26.38;9.82;;;14.70;99.90;;;;;;5016343;28;20030;-72
2021/06/07 06:19:02;;;;;;;21.95;9.65;;;14.70;99.90;;;;;;5006685;28;20092;-75
2021/06/07 06:21:28;;;;;;;24.15;11.25;;;14.80;99.90;;;;;;5007228;28;20034;-73
2021/06/07 06:23:55;;;;;;;15.35;9.00;;;14.80;99.90;;;;;;5006073;28;20027;-73
2021/06/07 06:26:21;;;;;;;22.83;9.45;;;14.80;99.90;;;;;;5006930;28;20419;-73
2021/06/07 06:28:48;;;;;;;25.50;9.05;;;14.80;99.90;;;;;;5005943;28;20033;-75
2021/06/07 06:31:15;;;;;;;15.77;8.30;;;14.90;99.90;;;;;;5007194;28;20051;-74
2021/06/07 06:33:41;;;;;;;18.92;10.13;;;14.90;99.90;;;;;;5006827;28;20029;-74
2021/06/07 06:36:07;;;;;;;18.45;10.35;;;15.00;99.90;;;;;;5007590;28;20031;-74
2021/06/07 06:38:33;;;;;;;21.88;9.18;;;15.00;99.90;;;;;;5007110;28;20023;-74
2021/06/07 06:40:58;;;;;;;27.58;10.77;;;15.10;99.90;;;;;;5004676;28;20030;-74
2021/06/07 06:43:24;;;;;;;16.65;8.10;;;15.10;99.90;;;;;;5005510;28;20031;-74
2021/06/07 06:45:50;;;;;;;30.35;9.57;;;15.10;99.90;;;;;;5005530;28;20387;-74
2021/06/07 06:48:16;;;;;;;17.90;9.23;;;15.20;99.90;;;;;;5006201;28;20023;-75
2021/06/07 06:50:43;;;;;;;18.25;9.13;;;15.20;99.90;;;;;;5007126;28;20018;-74
2021/06/07 06:53:15;;;;;;;16.17;8.43;;;15.20;99.90;;;;;;5006709;28;20062;-74
2021/06/07 06:55:41;;;;;;;14.32;7.82;;;15.20;99.90;;;;;;5006595;28;20463;-74
2021/06/07 06:58:08;;;;;;;13.45;8.20;;;15.20;99.90;;;;;;5006636;28;20026;-73
2021/06/07 07:00:37;;;;;;;12.18;7.75;;;15.30;99.90;;;;;;5006114;28;20106;-73
2021/06/07 07:03:06;;;;;;;17.33;9.57;;;15.30;99.90;;;;;;5006652;28;20022;-74
2021/06/07 07:05:33;;;;;;;15.90;8.27;;;15.30;99.90;;;;;;5006435;28;20022;-73
2021/06/07 07:07:59;;;;;;;14.63;7.93;;;15.30;99.90;;;;;;5004907;28;20058;-73
2021/06/07 07:10:24;;;;;;;15.90;8.43;;;15.30;99.90;;;;;;5006410;28;20042;-73
2021/06/07 07:12:50;;;;;;;16.15;8.45;;;15.40;99.90;;;;;;5006388;28;20117;-72
2021/06/07 07:15:16;;;;;;;19.10;8.98;;;15.40;99.90;;;;;;5006161;28;20077;-74
2021/06/07 07:17:42;;;;;;;15.77;8.25;;;15.40;99.90;;;;;;5006090;28;20065;-73
2021/06/07 07:20:08;;;;;;;13.90;7.55;;;15.40;99.90;;;;;;5006271;28;20037;-73
2021/06/07 07:22:35;;;;;;;12.55;8.05;;;15.40;99.90;;;;;;5006519;28;20030;-78
2021/06/07 07:25:01;;;;;;;19.58;8.40;;;15.50;99.90;;;;;;5006471;28;20090;-73
2021/06/07 07:27:26;;;;;;;14.20;7.50;;;15.50;99.90;;;;;;5006382;28;20037;-72
2021/06/07 07:29:54;;;;;;;15.52;7.85;;;15.50;99.90;;;;;;5006009;28;20022;-73
2021/06/07 07:32:21;;;;;;;14.60;7.65;;;15.60;99.90;;;;;;5006045;28;20471;-74
2021/06/07 07:34:47;;;;;;;16.00;7.45;;;15.60;99.90;;;;;;5005946;28;20533;-73
2021/06/07 07:37:12;;;;;;;21.65;7.93;;;15.60;99.90;;;;;;5005770;28;20026;-72
2021/06/07 07:39:39;;;;;;;22.50;7.68;;;15.70;99.90;;;;;;5006241;28;20034;-74
2021/06/07 07:42:05;;;;;;;20.17;8.48;;;15.70;99.90;;;;;;5005992;28;20022;-74
2021/06/07 07:44:31;;;;;;;16.55;6.93;;;15.70;99.90;;;;;;5005608;28;20866;-73
2021/06/07 07:46:57;;;;;;;14.25;8.02;;;15.70;99.90;;;;;;5005749;28;20030;-72
2021/06/07 07:49:22;;;;;;;11.30;5.97;;;15.80;99.90;;;;;;5005474;28;20050;-73
2021/06/07 07:51:48;;;;;;;14.80;6.75;;;15.80;99.90;;;;;;5005474;28;20042;-74
2021/06/07 07:54:15;;;;;;;11.60;5.53;;;15.70;99.90;;;;;;5005610;28;20086;-73
2021/06/07 07:56:41;;;;;;;10.10;6.00;;;15.80;99.90;;;;;;5007900;28;20033;-72
2021/06/07 07:59:07;;;;;;;13.35;6.97;;;15.80;99.90;;;;;;5011973;28;20125;-74
2021/06/07 08:01:33;;;;;;;12.07;6.70;;;15.90;99.90;;;;;;5015687;28;20033;-72
2021/06/07 08:04:00;;;;;;;14.18;6.57;;;15.90;99.90;;;;;;5016925;28;20049;-72
2021/06/07 08:06:26;;;;;;;15.95;7.18;;;15.90;99.90;;;;;;5025182;28;20089;-73
2021/06/07 08:08:52;;;;;;;11.70;6.10;;;15.90;99.90;;;;;;5025184;28;20037;-72
2021/06/07 08:11:17;;;;;;;11.32;6.97;;;15.90;99.90;;;;;;5023364;28;20058;-72
2021/06/07 08:13:43;;;;;;;11.77;6.60;;;15.90;99.90;;;;;;5025171;28;20040;-75
2021/06/07 08:16:09;;;;;;;11.75;6.30;;;15.80;99.90;;;;;;5024804;28;20061;-73
2021/06/07 08:18:34;;;;;;;13.63;6.93;;;16.00;99.90;;;;;;5023594;28;20034;-71
2021/06/07 08:21:00;;;;;;;15.02;7.72;;;15.90;99.90;;;;;;5024872;28;20034;-75
2021/06/07 08:23:26;;;;;;;13.18;6.80;;;15.80;99.90;;;;;;5024701;28;20030;-73
2021/06/07 08:25:51;;;;;;;12.48;6.40;;;15.90;99.90;;;;;;5024951;28;20030;-72
2021/06/07 08:28:17;;;;;;;15.93;6.00;;;15.90;99.90;;;;;;5024834;28;20030;-72
2021/06/07 08:30:43;;;;;;;12.90;7.18;;;16.00;99.90;;;;;;5022050;28;20097;-71
2021/06/07 08:33:09;;;;;;;15.35;6.80;;;15.90;99.90;;;;;;5023539;28;20094;-73
2021/06/07 08:35:35;;;;;;;12.82;6.75;;;16.10;99.90;;;;;;5024927;28;20026;-72
2021/06/07 08:38:00;;;;;;;12.68;6.82;;;16.00;99.90;;;;;;5024280;28;20045;-72
2021/06/07 08:40:26;;;;;;;15.55;7.05;;;16.10;99.90;;;;;;5024299;28;20026;-72
2021/06/07 08:42:52;;;;;;;13.65;7.07;;;16.00;99.90;;;;;;5022985;28;20041;-73
2021/06/07 08:45:22;;;;;;;15.48;8.40;;;16.10;99.90;;;;;;5023657;28;20095;-72
2021/06/07 08:47:50;;;;;;;14.68;7.38;;;16.10;99.90;;;;;;5024439;28;20026;-73
2021/06/07 08:50:20;;;;;;;9.63;5.95;;;16.10;99.90;;;;;;5022671;28;20037;-73
2021/06/07 08:52:45;;;;;;;14.40;6.15;;;16.20;99.90;;;;;;5023600;28;20037;-73
2021/06/07 08:55:13;;;;;;;11.70;6.47;;;16.30;99.90;;;;;;5023560;28;20104;-73
2021/06/07 08:57:42;;;;;;;11.40;6.75;;;16.30;99.90;;;;;;5015820;28;20026;-73
2021/06/07 09:00:10;;;;;;;13.88;6.63;;;16.40;99.90;;;;;;5004243;28;20047;-73
2021/06/07 09:02:38;;;;;;;12.20;6.82;;;16.50;99.90;;;;;;5016372;28;20030;-71
2021/06/07 09:05:05;;;;;;;11.98;6.82;;;16.70;99.90;;;;;;5023763;28;20157;-71
2021/06/07 09:07:31;;;;;;;13.57;6.05;;;16.80;99.90;;;;;;5022781;28;20054;-73
2021/06/07 09:10:09;;;;;;;11.63;5.95;;;16.90;99.90;;;;;;5022244;28;20030;-72
2021/06/07 09:12:35;;;;;;;10.32;6.80;;;17.00;99.90;;;;;;5004800;28;20030;-72
2021/06/07 09:15:00;;;;;;;13.18;7.03;;;17.20;99.90;;;;;;5004839;28;20493;-72
2021/06/07 09:17:27;;;;;;;10.45;6.18;;;17.30;99.90;;;;;;5007163;28;20494;-74
2021/06/07 09:20:18;;;;;;;9.90;6.07;;;17.50;99.90;;;;;;5002908;28;20038;-71
2021/06/07 09:22:55;;;;;;;9.90;5.70;;;17.60;99.90;;;;;;5004875;28;20034;-72
2021/06/07 09:25:29;;;;;;;15.27;6.10;;;17.80;99.90;;;;;;5012080;28;20030;-72
2021/06/07 09:28:19;;;;;;;13.18;5.53;;;18.00;99.90;;;;;;5023026;28;20034;-73
2021/06/07 09:30:59;;;;;;;8.88;5.28;;;18.10;99.90;;;;;;5023150;28;20034;-73
2021/06/07 09:33:34;;;;;;;9.52;4.57;;;18.20;99.90;;;;;;5024265;28;20050;-70
2021/06/07 09:36:29;;;;;;;24.90;5.47;;;18.30;99.90;;;;;;5024244;28;20033;-71
2021/06/07 09:39:23;;;;;;;16.83;5.93;;;18.40;99.90;;;;;;5023187;28;20030;-73
2021/06/07 09:42:14;;;;;;;13.97;5.83;;;18.40;99.90;;;;;;5024724;28;20038;-75
2021/06/07 09:44:47;;;;;;;12.13;5.20;;;18.40;99.90;;;;;;5025106;28;20049;-72
2021/06/07 09:47:27;;;;;;;12.02;6.00;;;18.40;99.90;;;;;;5027403;28;20034;-73
2021/06/07 09:49:53;;;;;;;8.98;4.93;;;18.50;99.90;;;;;;5011189;28;20063;-74
2021/06/07 09:52:43;;;;;;;10.23;5.35;;;18.60;99.90;;;;;;5022838;28;20101;-72
2021/06/07 09:55:24;;;;;;;8.82;5.43;;;18.60;99.90;;;;;;5012469;28;20038;-73
2021/06/07 09:58:01;;;;;;;10.05;5.50;;;18.60;99.90;;;;;;5011873;28;20052;-72
2021/06/07 10:00:42;;;;;;;10.77;5.30;;;18.60;99.90;;;;;;5026960;28;20050;-73
2021/06/07 10:03:41;;;;;;;12.52;5.32;;;18.70;99.90;;;;;;5027380;28;20459;-75
2021/06/07 10:06:25;;;;;;;8.50;5.55;;;18.70;99.90;;;;;;5027517;28;20643;-73
2021/06/07 10:08:59;;;;;;;11.18;5.53;;;18.70;99.90;;;;;;5008779;28;20034;-73
2021/06/07 10:11:32;;;;;;;13.13;5.45;;;18.70;99.90;;;;;;5005516;28;20053;-71
2021/06/07 10:14:18;;;;;;;9.30;5.05;;;18.60;99.90;;;;;;5024243;28;20381;-75
2021/06/07 10:17:00;;;;;;;10.85;5.75;;;18.50;99.90;;;;;;5024946;28;20041;-75
2021/06/07 10:22:11;;;;;;;12.77;6.38;;;18.40;99.90;;;;;;5027232;28;20061;-76
2021/06/07 10:24:39;;;;;;;13.50;6.47;;;18.50;99.90;;;;;;5027238;28;20080;-74
2021/06/07 10:27:06;;;;;;;8.27;5.43;;;18.60;99.90;;;;;;5024956;28;20036;-72
2021/06/07 10:29:43;;;;;;;10.20;5.95;;;18.70;99.90;;;;;;5025947;28;20026;-73
2021/06/07 10:32:27;;;;;;;11.90;5.85;;;18.70;99.90;;;;;;5021397;28;20050;-75
2021/06/07 10:34:56;;;;;;;10.23;6.15;;;18.80;99.90;;;;;;5005401;28;20027;-74
2021/06/07 10:37:24;;;;;;;14.52;6.00;;;18.90;99.90;;;;;;5005657;28;20081;-74
2021/06/07 10:39:51;;;;;;;10.50;5.22;;;19.00;99.90;;;;;;5007252;28;20025;-71
2021/06/07 10:42:18;;;;;;;11.77;6.20;;;18.90;99.90;;;;;;5005043;28;20100;-74
2021/06/07 10:44:52;;;;;;;9.85;5.50;;;19.00;99.90;;;;;;5006088;28;20089;-73
2021/06/07 10:47:28;;;;;;;9.68;5.72;;;19.00;99.90;;;;;;5007057;28;20026;-72
2021/06/07 10:50:09;;;;;;;7.63;4.90;;;19.00;99.90;;;;;;5006703;28;20048;-74
2021/06/07 10:53:01;;;;;;;7.82;5.22;;;19.00;99.90;;;;;;5007702;28;20045;-74
2021/06/07 10:55:34;;;;;;;10.35;5.93;;;19.10;99.90;;;;;;5006909;28;20076;-74
2021/06/07 10:58:23;;;;;;;8.00;5.07;;;19.10;99.90;;;;;;5016735;28;20040;-74
2021/06/07 11:00:50;;;;;;;11.25;5.50;;;19.10;99.90;;;;;;5024954;28;20050;-74
2021/06/07 11:03:24;;;;;;;11.02;5.20;;;19.10;99.90;;;;;;5026536;28;20026;-74
2021/06/07 11:06:02;;;;;;;9.32;5.93;;;19.10;99.90;;;;;;5021477;28;20062;-75
2021/06/07 11:08:30;;;;;;;7.97;5.22;;;19.10;99.90;;;;;;5006624;28;20030;-72
2021/06/07 11:11:09;;;;;;;12.27;5.53;;;19.00;99.90;;;;;;5006683;28;20053;-71
2021/06/07 11:13:49;;;;;;;10.48;5.70;;;19.00;99.90;;;;;;5005331;28;20463;-72
2021/06/07 11:16:25;;;;;;;8.20;5.25;;;19.00;99.90;;;;;;5006728;28;20034;-74
2021/06/07 11:19:07;;;;;;;9.65;5.30;;;19.00;99.90;;;;;;5004771;28;20076;-74
2021/06/07 11:21:48;;;;;;;13.15;6.22;;;19.00;99.90;;;;;;5006438;28;20045;-73
2021/06/07 11:24:26;;;;;;;11.15;5.13;;;18.90;99.90;;;;;;5006413;28;20029;-71
2021/06/07 11:26:52;;;;;;;12.68;5.43;;;18.80;99.90;;;;;;5006043;28;20035;-73
2021/06/07 11:29:18;;;;;;;10.43;5.70;;;18.80;99.90;;;;;;5006382;28;20027;-74
2021/06/07 11:32:05;;;;;;;15.10;6.72;;;18.70;99.90;;;;;;5012645;28;20052;-75
2021/06/07 11:34:50;;;;;;;7.55;5.15;;;18.60;99.90;;;;;;5021518;28;20045;-73
2021/06/07 11:37:36;;;;;;;17.02;5.30;;;18.60;99.90;;;;;;5025916;28;20088;-73
2021/06/07 11:40:07;;;;;;;11.18;4.63;;;18.50;99.90;;;;;;5007652;28;20046;-70
2021/06/07 11:42:51;;;;;;;10.95;5.47;;;18.60;99.90;;;;;;5018370;28;20030;-75
2021/06/07 11:45:16;;;;;;;14.57;6.47;;;18.70;99.90;;;;;;5025444;28;20026;-73
2021/06/07 11:47:44;;;;;;;8.40;5.93;;;18.70;99.90;;;;;;5023989;28;20049;-74
2021/06/07 11:50:28;;;;;;;8.18;5.40;;;18.70;99.90;;;;;;5024395;28;20133;-74
2021/06/07 11:52:54;;;;;;;;;;;18.70;99.90;;;;;;5026156;28;20125;-74
2021/06/07 11:55:32;;;;;;;15.77;6.97;;;18.80;99.90;;;;;;5022442;28;19905;-73
2021/06/07 11:58:10;;;;;;;11.13;5.93;;;18.80;99.90;;;;;;5005763;28;20033;-73
2021/06/07 12:00:40;;;;;;;15.35;6.10;;;18.90;99.90;;;;;;5005595;28;20061;-74
2021/06/07 12:03:08;;;;;;;11.98;6.43;;;18.90;99.90;;;;;;5005573;28;20463;-74
2021/06/07 12:05:34;;;;;;;13.55;6.18;;;19.00;99.90;;;;;;5003985;28;20030;-74
2021/06/07 12:08:10;;;;;;;9.77;5.90;;;19.00;99.90;;;;;;5004023;28;20038;-75
2021/06/07 12:10:37;;;;;;;11.02;5.82;;;19.00;99.90;;;;;;5005723;28;20053;-73
2021/06/07 12:13:19;;;;;;;8.43;4.88;;;19.00;99.90;;;;;;5022666;28;20037;-75
2021/06/07 12:15:50;;;;;;;14.07;5.85;;;19.10;99.90;;;;;;5024657;28;20053;-75
2021/06/07 12:18:31;;;;;;;10.20;5.70;;;19.10;99.90;;;;;;5023786;28;20391;-74
2021/06/07 12:21:12;;;;;;;8.27;5.15;;;19.10;99.90;;;;;;5023654;28;20441;-75
2021/06/07 12:23:45;;;;;;;11.90;6.20;;;19.10;99.90;;;;;;5024666;28;20032;-75
2021/06/07 12:29:23;;;;;;;18.70;5.55;;;19.20;99.90;;;;;;5044115;28;20044;-75
2021/06/07 12:32:20;;;;;;;11.93;6.13;;;19.20;99.90;;;;;;5034233;28;20042;-75
2021/06/07 12:35:13;;;;;;;13.13;6.35;;;19.00;99.90;;;;;;5021428;28;20034;-73
2021/06/07 12:37:52;;;;;;;10.70;6.43;;;18.90;99.90;;;;;;5024214;28;20123;-74
2021/06/07 12:40:40;;;;;;;13.82;7.15;;;18.80;99.90;;;;;;5024098;28;20026;-74
2021/06/07 12:43:06;;;;;;;15.32;7.70;;;18.70;99.90;;;;;;5024472;28;20029;-71
2021/06/07 12:45:54;;;;;;;12.02;7.03;;;18.60;99.90;;;;;;5024168;28;20030;-73
2021/06/07 12:48:25;;;;;;;11.25;6.68;;;18.60;99.90;;;;;;5024742;28;20025;-74
2021/06/07 12:50:55;;;;;;;17.23;8.07;;;18.60;99.90;;;;;;5022867;28;20452;-73
2021/06/07 12:53:26;;;;;;;16.73;8.70;;;18.70;99.90;;;;;;5024457;28;20045;-73
2021/06/07 12:55:55;;;;;;;13.65;8.05;;;18.80;99.90;;;;;;5005220;28;20034;-72